Time;durP1;ratioP1;P1;durP2;ratioP2;P2;SDS_P1;SDS_P2;PMS_P1;PMS_P2;Temp;Humidity;BMP_temperature;BMP_pressure;BME280_temperature;BME280_humidity;BME280_pressure;Samples;Min_cycle;Max_cycle;Signal;HPM_P1;HPM_P2
2021/12/09 00:01:27;;;;;;;50.95;25.42;;;;;;;1.85;100.00;100385.53;10116930;28;20085;-69
2021/12/09 00:06:28;;;;;;;50.10;26.67;;;;;;;1.75;100.00;100383.66;10117549;28;20074;-69
2021/12/09 00:11:25;;;;;;;51.97;25.67;;;;;;;1.73;100.00;100383.09;10113355;28;20136;-69
2021/12/09 00:16:21;;;;;;;50.17;26.92;;;;;;;1.70;100.00;100385.53;10101397;28;20047;-69
2021/12/09 00:21:18;;;;;;;58.30;27.65;;;;;;;1.79;100.00;100381.25;10116055;28;20078;-69
2021/12/09 00:26:14;;;;;;;51.35;26.27;;;;;;;1.75;100.00;100372.88;10119807;28;20070;-69
2021/12/09 00:31:12;;;;;;;50.78;25.63;;;;;;;1.63;100.00;100367.72;10124533;28;20101;-69
2021/12/09 00:36:09;;;;;;;56.00;27.85;;;;;;;1.61;100.00;100363.69;10105905;28;20096;-69
2021/12/09 00:41:09;;;;;;;48.03;25.42;;;;;;;1.78;100.00;100352.66;10121963;28;20038;-69
2021/12/09 00:46:06;;;;;;;56.13;25.48;;;;;;;1.84;100.00;100356.97;10125894;28;20038;-68
2021/12/09 00:51:04;;;;;;;49.47;26.58;;;;;;;1.72;100.00;100359.94;10118232;28;20078;-69
2021/12/09 00:56:03;;;;;;;46.50;24.48;;;;;;;1.71;100.00;100357.50;10114189;28;20050;-69
2021/12/09 01:00:59;;;;;;;48.85;24.52;;;;;;;1.82;100.00;100359.13;10125549;28;20046;-69
2021/12/09 01:05:56;;;;;;;53.58;26.05;;;;;;;1.89;100.00;100349.69;10123851;28;20039;-67
2021/12/09 01:11:10;;;;;;;53.23;27.10;;;;;;;1.86;100.00;100357.53;10117243;28;20042;-68
2021/12/09 01:16:07;;;;;;;58.45;27.48;;;;;;;1.89;100.00;100354.28;10100978;28;20066;-66
2021/12/09 01:21:04;;;;;;;55.63;27.15;;;;;;;1.76;100.00;100355.59;10116401;28;20077;-66
2021/12/09 01:26:04;;;;;;;52.78;26.20;;;;;;;1.77;100.00;100351.84;10114477;28;20043;-68
2021/12/09 01:31:03;;;;;;;54.85;27.48;;;;;;;1.79;100.00;100344.31;10114607;28;20066;-70
2021/12/09 01:36:00;;;;;;;54.47;28.52;;;;;;;1.76;100.00;100334.03;10113815;28;20565;-69
2021/12/09 01:40:58;;;;;;;61.00;28.98;;;;;;;1.68;100.00;100348.06;10121471;28;20085;-70
2021/12/09 01:46:03;;;;;;;57.28;28.42;;;;;;;1.74;100.00;100347.00;10115956;28;20066;-70
2021/12/09 01:50:59;;;;;;;61.40;29.27;;;;;;;1.75;100.00;100364.78;10121329;28;20042;-71
2021/12/09 01:56:02;;;;;;;62.15;30.05;;;;;;;1.69;100.00;100365.84;10110004;28;20542;-69
2021/12/09 02:00:59;;;;;;;63.88;30.05;;;;;;;1.63;100.00;100361.53;10118845;28;20063;-70
2021/12/09 02:05:55;;;;;;;64.40;29.23;;;;;;;1.71;100.00;100346.72;10115191;28;20522;-70
2021/12/09 02:10:52;;;;;;;68.32;31.60;;;;;;;1.74;100.00;100349.69;10122773;28;20051;-69
2021/12/09 02:15:54;;;;;;;57.83;28.30;;;;;;;1.71;100.00;100346.72;10103752;28;20101;-70
2021/12/09 02:21:30;;;;;;;67.30;31.33;;;;;;;1.63;100.00;100331.88;10116907;28;20043;-70
2021/12/09 02:26:31;;;;;;;64.35;29.30;;;;;;;1.61;100.00;100331.34;10067829;28;20108;-71
2021/12/09 02:31:28;;;;;;;67.43;31.77;;;;;;;1.57;100.00;100330.25;10118453;28;20081;-70
2021/12/09 02:36:25;;;;;;;61.08;29.92;;;;;;;1.73;100.00;100326.50;10104748;28;20550;-68
2021/12/09 02:41:24;;;;;;;65.45;30.50;;;;;;;1.80;100.00;100328.94;10108301;28;20105;-70
2021/12/09 02:46:23;;;;;;;65.18;32.30;;;;;;;1.75;100.00;100337.81;10127790;28;20126;-69
2021/12/09 02:51:20;;;;;;;69.15;30.48;;;;;;;1.53;100.00;100345.31;10124955;28;20058;-71
2021/12/09 02:56:19;;;;;;;66.00;31.45;;;;;;;1.71;100.00;100352.91;10107383;28;20076;-69
2021/12/09 03:01:20;;;;;;;62.30;28.83;;;;;;;1.70;100.00;100362.09;10129276;28;20046;-70
2021/12/09 03:06:19;;;;;;;67.95;30.85;;;;;;;1.72;100.00;100354.53;10133877;28;20132;-67
2021/12/09 03:11:21;;;;;;;74.40;31.75;;;;;;;1.65;100.00;100354.00;10134582;28;20062;-69
2021/12/09 03:16:19;;;;;;;72.60;31.05;;;;;;;1.70;100.00;100366.66;10118997;28;20106;-70
2021/12/09 03:21:26;;;;;;;76.82;33.63;;;;;;;1.72;100.00;100373.41;10129426;28;20146;-71
2021/12/09 03:26:29;;;;;;;70.53;32.08;;;;;;;1.69;100.00;100371.22;10117487;28;20055;-70
2021/12/09 03:31:26;;;;;;;72.82;32.03;;;;;;;1.69;100.00;100379.31;10117488;28;20497;-69
2021/12/09 03:36:26;;;;;;;69.63;31.48;;;;;;;1.74;100.00;100390.13;10117615;28;20046;-70
2021/12/09 03:41:22;;;;;;;68.07;30.67;;;;;;;1.65;100.00;100391.72;10125153;28;20180;-71
2021/12/09 03:46:19;;;;;;;73.53;31.10;;;;;;;1.63;100.00;100400.06;10113909;28;20043;-70
2021/12/09 03:51:16;;;;;;;77.32;33.42;;;;;;;1.57;100.00;100394.94;10117131;28;20085;-69
2021/12/09 03:56:12;;;;;;;73.97;32.53;;;;;;;1.47;100.00;100391.13;10117898;28;20065;-71
2021/12/09 04:01:09;;;;;;;70.15;31.25;;;;;;;1.53;100.00;100410.00;10123467;28;20042;-72
2021/12/09 04:06:06;;;;;;;80.63;32.80;;;;;;;1.58;100.00;100407.31;10116275;28;20141;-70
2021/12/09 04:11:02;;;;;;;72.20;33.67;;;;;;;1.62;100.00;100403.81;10124546;28;20050;-71
2021/12/09 04:16:01;;;;;;;69.57;30.80;;;;;;;1.60;100.00;100399.78;10115746;28;20055;-71
2021/12/09 04:20:57;;;;;;;78.45;35.45;;;;;;;1.51;100.00;100387.88;10113333;28;20131;-69
2021/12/09 04:25:54;;;;;;;69.80;30.98;;;;;;;1.46;100.00;100389.53;10110726;28;20519;-70
2021/12/09 04:30:51;;;;;;;82.13;33.88;;;;;;;1.22;100.00;100377.56;10117992;28;20047;-69
2021/12/09 04:35:47;;;;;;;75.03;31.70;;;;;;;1.34;100.00;100380.84;10118736;28;20047;-68
2021/12/09 04:40:44;;;;;;;74.28;32.75;;;;;;;1.49;100.00;100366.63;10116705;28;20071;-69
2021/12/09 04:45:40;;;;;;;71.88;32.10;;;;;;;1.40;100.00;100369.00;10114688;28;20463;-69
2021/12/09 04:50:38;;;;;;;73.80;31.27;;;;;;;1.29;100.00;100351.19;10110035;28;20043;-70
2021/12/09 04:55:38;;;;;;;76.65;33.92;;;;;;;1.41;100.00;100359.84;10108804;28;20461;-70
2021/12/09 05:00:38;;;;;;;78.38;35.17;;;;;;;1.31;100.00;100361.72;10124698;28;20074;-68
2021/12/09 05:05:40;;;;;;;70.53;33.35;;;;;;;1.29;100.00;100372.75;10113988;28;20047;-69
2021/12/09 05:10:54;;;;;;;76.40;33.17;;;;;;;1.39;100.00;100388.97;10102554;28;20066;-70
2021/12/09 05:15:53;;;;;;;67.40;29.88;;;;;;;1.36;100.00;100388.66;10102426;28;20101;-68
2021/12/09 05:20:50;;;;;;;75.97;33.13;;;;;;;1.41;100.00;100397.56;10100088;28;20053;-70
2021/12/09 05:25:48;;;;;;;78.90;34.45;;;;;;;1.45;100.00;100392.47;10097645;28;21326;-68
2021/12/09 05:36:03;;;;;;;71.22;31.15;;;;;;;1.33;100.00;100391.91;10096047;28;20059;-67
2021/12/09 05:41:00;;;;;;;66.95;29.48;;;;;;;1.41;100.00;100411.03;10106046;28;20660;-67
2021/12/09 05:45:56;;;;;;;68.10;31.58;;;;;;;1.43;100.00;100400.81;10099404;28;20417;-68
2021/12/09 05:50:53;;;;;;;70.68;33.22;;;;;;;1.49;100.00;100408.94;10100303;28;20039;-70
2021/12/09 05:55:49;;;;;;;65.38;31.75;;;;;;;1.33;100.00;100416.94;10097619;28;20066;-69
2021/12/09 06:00:47;;;;;;;72.40;31.95;;;;;;;1.43;100.00;100416.16;10098362;28;20439;-69
2021/12/09 06:05:44;;;;;;;68.13;30.50;;;;;;;1.39;100.00;100399.72;10099013;28;20035;-69
2021/12/09 06:10:40;;;;;;;71.57;33.53;;;;;;;1.46;100.00;100410.25;10106671;28;20077;-69
2021/12/09 06:15:37;;;;;;;73.03;31.23;;;;;;;1.31;100.00;100408.31;10101325;28;20109;-69
2021/12/09 06:20:34;;;;;;;73.05;32.25;;;;;;;1.41;100.00;100416.41;10116697;28;20047;-69
2021/12/09 06:25:31;;;;;;;70.65;33.42;;;;;;;1.45;100.00;100431.00;10102711;28;20505;-68
2021/12/09 06:30:27;;;;;;;70.40;32.35;;;;;;;1.42;100.00;100434.22;10106776;28;20047;-68
2021/12/09 06:35:27;;;;;;;72.20;32.47;;;;;;;1.34;100.00;100418.56;10115034;28;20050;-69
2021/12/09 06:40:24;;;;;;;68.00;33.53;;;;;;;1.35;100.00;100422.88;10115744;28;20050;-69
2021/12/09 06:45:22;;;;;;;68.53;31.15;;;;;;;1.39;100.00;100425.84;10132254;28;20456;-69
2021/12/09 06:50:19;;;;;;;72.35;32.65;;;;;;;1.33;100.00;100443.06;10119504;28;20500;-69
2021/12/09 06:55:18;;;;;;;76.03;34.78;;;;;;;1.43;100.00;100427.75;10129679;28;20105;-69
2021/12/09 07:00:21;;;;;;;77.45;34.17;;;;;;;1.40;100.00;100422.91;10120090;28;20089;-69
2021/12/09 07:05:19;;;;;;;;;;;;;;;1.30;100.00;100439.03;10125494;28;20109;-68
2021/12/09 07:10:15;;;;;;;75.25;33.30;;;;;;;1.38;100.00;100435.81;10123334;28;19922;-69
2021/12/09 07:15:14;;;;;;;75.32;34.40;;;;;;;1.43;100.00;100443.91;10130354;28;20066;-69
2021/12/09 07:20:14;;;;;;;75.45;34.65;;;;;;;1.33;100.00;100446.56;10124506;28;20074;-69
2021/12/09 07:25:10;;;;;;;77.13;33.40;;;;;;;1.31;100.00;100439.84;10120500;28;20412;-69
2021/12/09 07:30:09;;;;;;;74.68;33.22;;;;;;;1.24;100.00;100440.06;10119536;28;20433;-69
2021/12/09 07:35:07;;;;;;;79.82;34.88;;;;;;;1.36;100.00;100448.72;10122684;28;20074;-70
2021/12/09 07:40:07;;;;;;;78.78;35.42;;;;;;;1.36;100.00;100448.72;10109030;28;20121;-70
2021/12/09 07:45:05;;;;;;;77.82;36.53;;;;;;;1.36;100.00;100454.13;10103210;28;20482;-69
2021/12/09 07:50:04;;;;;;;71.75;32.88;;;;;;;1.37;100.00;100455.75;10099495;28;20098;-68
2021/12/09 07:55:02;;;;;;;84.78;36.10;;;;;;;1.26;100.00;100456.78;10095092;28;20473;-70
2021/12/09 07:59:59;;;;;;;76.68;34.10;;;;;;;1.31;100.00;100477.53;10109411;28;20063;-69
2021/12/09 08:04:56;;;;;;;82.60;34.50;;;;;;;1.37;100.00;100477.31;10104615;28;20532;-69
2021/12/09 08:09:52;;;;;;;80.97;35.50;;;;;;;1.38;100.00;100483.50;10096200;28;20086;-69
2021/12/09 08:14:49;;;;;;;83.60;37.78;;;;;;;1.32;100.00;100489.94;10105630;28;20140;-68
2021/12/09 08:19:45;;;;;;;81.97;37.38;;;;;;;1.36;100.00;100491.84;10128592;28;20468;-69
2021/12/09 08:24:42;;;;;;;75.55;36.08;;;;;;;1.31;100.00;100491.81;10114078;28;20046;-70
2021/12/09 08:29:38;;;;;;;82.38;37.65;;;;;;;1.45;100.00;100484.06;10119215;28;20042;-69
2021/12/09 08:34:35;;;;;;;81.75;36.15;;;;;;;1.43;100.00;100487.03;10109201;28;20055;-68
2021/12/09 08:39:31;;;;;;;87.57;36.78;;;;;;;1.41;100.00;100489.16;10121450;28;20070;-69
2021/12/09 08:44:28;;;;;;;83.43;35.50;;;;;;;1.40;100.00;100487.56;10126005;28;20054;-69
2021/12/09 08:49:24;;;;;;;74.22;34.75;;;;;;;1.47;100.00;100479.22;10126517;28;20120;-69
2021/12/09 08:54:21;;;;;;;83.78;36.20;;;;;;;1.45;100.00;100471.41;10116623;28;20116;-70
2021/12/09 08:59:20;;;;;;;92.25;35.03;;;;;;;1.52;100.00;100473.06;10136867;28;20092;-68
2021/12/09 09:04:35;;;;;;;86.75;38.10;;;;;;;1.56;100.00;100474.16;10122593;28;20046;-70
2021/12/09 09:09:34;;;;;;;82.70;35.72;;;;;;;1.39;100.00;100467.09;10120337;28;20129;-70
2021/12/09 09:14:31;;;;;;;88.53;36.47;;;;;;;1.33;100.00;100470.81;10122200;28;20560;-69
2021/12/09 09:19:27;;;;;;;82.50;35.70;;;;;;;1.47;100.00;100473.84;10123474;28;20501;-69
2021/12/09 09:24:23;;;;;;;92.50;38.58;;;;;;;1.54;100.00;100470.91;10119509;28;20138;-69
2021/12/09 09:29:20;;;;;;;88.18;36.47;;;;;;;1.39;100.00;100464.41;10119940;28;20039;-70
2021/12/09 09:34:17;;;;;;;87.47;37.33;;;;;;;1.62;100.00;100465.00;10116854;28;20056;-71
2021/12/09 09:39:18;;;;;;;87.38;37.17;;;;;;;1.67;100.00;100448.84;10115570;28;20050;-69
2021/12/09 09:44:18;;;;;;;83.82;37.15;;;;;;;1.74;100.00;100449.44;10116121;28;20077;-70
2021/12/09 09:49:15;;;;;;;84.93;37.30;;;;;;;1.66;100.00;100455.31;10124410;28;20042;-69
2021/12/09 09:54:11;;;;;;;82.28;36.60;;;;;;;1.74;100.00;100459.38;10121510;28;20080;-68
2021/12/09 09:59:10;;;;;;;80.85;36.30;;;;;;;1.76;100.00;100468.00;10114919;28;20077;-68
2021/12/09 10:04:15;;;;;;;83.15;34.28;;;;;;;1.44;100.00;100467.09;10121670;28;20137;-69
2021/12/09 10:09:13;;;;;;;84.93;37.53;;;;;;;1.58;100.00;100466.59;10137003;28;20077;-70
2021/12/09 10:14:17;;;;;;;81.57;35.40;;;;;;;1.65;100.00;100477.97;10129866;28;20610;-70
2021/12/09 10:19:19;;;;;;;85.28;36.40;;;;;;;1.61;100.00;100471.47;10130409;28;20042;-68
2021/12/09 10:24:16;;;;;;;75.00;30.73;;;;;;;1.59;100.00;100477.13;10118369;28;20076;-69
2021/12/09 10:29:31;;;;;;;87.47;35.83;;;;;;;1.64;100.00;100460.16;10115772;28;20055;-69
2021/12/09 10:34:40;;;;;;;84.53;36.10;;;;;;;1.47;100.00;100450.41;10115841;28;20137;-69
2021/12/09 10:39:46;;;;;;;83.53;37.15;;;;;;;1.61;100.00;100460.69;10118599;28;20053;-69
2021/12/09 10:44:49;;;;;;;89.47;37.03;;;;;;;1.71;100.00;100444.53;10103144;28;20077;-69
2021/12/09 10:49:54;;;;;;;84.53;37.17;;;;;;;1.63;100.00;100437.00;10116324;28;20047;-68
2021/12/09 10:54:51;;;;;;;78.78;37.30;;;;;;;1.73;100.00;100447.78;10109310;28;20133;-70
2021/12/09 10:59:47;;;;;;;87.55;38.10;;;;;;;1.74;100.00;100443.19;10118567;28;20157;-68
2021/12/09 11:05:07;;;;;;;89.53;38.10;;;;;;;1.77;100.00;100432.72;10114237;28;20071;-68
2021/12/09 11:10:15;;;;;;;89.75;37.60;;;;;;;1.76;100.00;100428.38;10120172;28;20055;-70
2021/12/09 11:15:17;;;;;;;86.53;37.77;;;;;;;1.82;100.00;100424.63;10108607;28;20054;-68
2021/12/09 11:20:14;;;;;;;81.20;37.13;;;;;;;1.93;100.00;100435.41;10101934;28;20433;-70
2021/12/09 11:25:32;;;;;;;85.20;36.08;;;;;;;1.78;100.00;100433.50;10106357;28;20057;-68
2021/12/09 11:30:32;;;;;;;88.70;37.78;;;;;;;1.88;100.00;100431.66;10103947;28;20051;-68
2021/12/09 11:35:33;;;;;;;89.20;37.38;;;;;;;1.98;100.00;100435.44;10106699;28;20086;-69
2021/12/09 11:40:47;;;;;;;89.47;37.83;;;;;;;1.91;100.00;100432.22;10098599;28;20619;-69
2021/12/09 11:45:50;;;;;;;84.90;38.80;;;;;;;1.91;100.00;100426.81;10097160;28;20050;-70
2021/12/09 11:50:50;;;;;;;91.47;37.63;;;;;;;1.92;100.00;100431.91;10105064;28;20061;-69
2021/12/09 11:56:08;;;;;;;86.80;36.38;;;;;;;2.05;100.00;100427.91;10100433;28;20077;-71
2021/12/09 12:07:05;;;;;;;87.40;38.80;;;;;;;2.15;100.00;100395.53;10079301;28;20752;-69
2021/12/09 12:12:34;;;;;;;90.30;36.08;;;;;;;2.21;100.00;100389.06;10107978;28;20417;-70
2021/12/09 12:40:25;;;;;;;73.30;33.50;;;;;;;2.25;100.00;100365.06;10088332;28;20051;-73
2021/12/09 12:45:58;;;;;;;85.90;36.35;;;;;;;2.16;100.00;100363.97;10101361;28;20043;-72
2021/12/09 12:56:26;;;;;;;84.65;37.00;;;;;;;2.40;100.00;100358.84;10098281;28;20821;-67
2021/12/09 13:01:24;;;;;;;81.45;37.40;;;;;;;2.53;100.00;100355.59;10103568;28;20436;-68
2021/12/09 13:06:58;;;;;;;85.38;38.03;;;;;;;2.58;100.00;100349.38;10097159;28;20130;-68
2021/12/09 13:12:00;;;;;;;80.35;34.95;;;;;;;2.69;100.00;100330.19;10102775;28;20413;-68
2021/12/09 13:17:06;;;;;;;78.18;35.30;;;;;;;2.73;100.00;100328.53;10115715;28;20515;-68
2021/12/09 13:22:19;;;;;;;93.38;38.70;;;;;;;2.73;100.00;100317.72;10109863;28;20460;-69
2021/12/09 13:27:50;;;;;;;83.10;36.80;;;;;;;2.67;100.00;100337.75;10113805;28;20125;-68
2021/12/09 13:33:09;;;;;;;93.03;37.78;;;;;;;2.50;100.00;100348.03;10115050;28;20054;-68
2021/12/09 13:48:41;;;;;;;86.38;36.05;;;;;;;2.29;100.00;100342.66;10110616;28;20094;-69
2021/12/09 13:54:08;;;;;;;93.68;38.50;;;;;;;2.28;100.00;100351.84;10107464;28;20047;-68
2021/12/09 13:58:59;;;;;;;92.00;37.40;;;;;;;2.25;100.00;100357.78;10109459;28;20047;-69
2021/12/09 14:03:56;;;;;;;90.13;39.13;;;;;;;2.40;100.00;100356.16;10103110;28;20046;-69
2021/12/09 14:08:55;;;;;;;101.60;41.90;;;;;;;2.36;100.00;100353.19;10103471;28;20486;-68
2021/12/09 14:14:06;;;;;;;92.10;38.45;;;;;;;2.35;100.00;100366.97;10090977;28;20146;-68
2021/12/09 14:24:15;;;;;;;95.57;38.72;;;;;;;2.21;100.00;100378.28;10096793;28;20390;-68
2021/12/09 14:29:13;;;;;;;90.78;39.17;;;;;;;2.19;100.00;100375.06;10115078;28;20046;-68
2021/12/09 14:34:09;;;;;;;96.03;40.78;;;;;;;2.23;100.00;100367.25;10094624;28;20467;-69
2021/12/09 14:39:09;;;;;;;92.32;38.55;;;;;;;2.13;100.00;100359.94;10100888;28;20740;-69
2021/12/09 14:44:09;;;;;;;88.13;38.70;;;;;;;2.14;100.00;100366.97;10120770;28;20110;-68
2021/12/09 14:49:18;;;;;;;95.68;39.05;;;;;;;2.12;100.00;100363.72;10103759;28;20052;-69
2021/12/09 14:54:18;;;;;;;100.22;40.55;;;;;;;2.10;100.00;100360.47;10103473;28;20078;-66
2021/12/09 14:59:20;;;;;;;93.03;38.97;;;;;;;2.10;100.00;100360.47;10111960;28;20117;-68
2021/12/09 15:04:31;;;;;;;98.97;38.17;;;;;;;2.14;100.00;100356.19;10103021;28;20117;-70
2021/12/09 15:09:28;;;;;;;91.63;41.30;;;;;;;2.05;100.00;100347.00;10113958;28;20061;-68
2021/12/09 15:14:35;;;;;;;107.45;42.15;;;;;;;2.09;100.00;100342.69;10131935;28;20415;-69
2021/12/09 15:19:32;;;;;;;94.18;39.20;;;;;;;2.22;100.00;100347.53;10113387;28;20452;-67
2021/12/09 15:24:29;;;;;;;98.25;39.53;;;;;;;2.14;100.00;100353.47;10121953;28;20050;-68
2021/12/09 15:29:26;;;;;;;99.47;41.22;;;;;;;2.14;100.00;100366.97;10108729;28;20417;-67
2021/12/09 15:34:25;;;;;;;102.00;40.38;;;;;;;2.07;100.00;100377.22;10118225;28;20470;-68
2021/12/09 15:39:24;;;;;;;101.20;40.15;;;;;;;2.05;100.00;100382.06;10129861;28;20114;-68
2021/12/09 15:44:23;;;;;;;104.60;42.53;;;;;;;2.07;100.00;100393.41;10124670;28;20106;-68
2021/12/09 15:49:24;;;;;;;106.60;41.53;;;;;;;2.01;100.00;100394.47;10133008;28;20093;-68
2021/12/09 15:54:27;;;;;;;110.80;39.53;;;;;;;2.03;100.00;100413.88;10122075;28;20055;-68
2021/12/09 15:59:29;;;;;;;112.85;40.53;;;;;;;1.89;100.00;100403.59;10121603;28;20051;-68
2021/12/09 16:04:27;;;;;;;104.97;43.15;;;;;;;1.84;100.00;100400.91;10109079;28;20047;-68
2021/12/09 16:09:23;;;;;;;106.47;42.90;;;;;;;1.87;100.00;100408.47;10105445;28;20700;-68
2021/12/09 16:14:25;;;;;;;110.20;41.10;;;;;;;1.82;100.00;100416.53;10106547;28;20063;-68
2021/12/09 16:19:24;;;;;;;110.15;41.65;;;;;;;1.78;100.00;100423.53;10102660;28;20478;-68
2021/12/09 16:24:21;;;;;;;114.13;42.00;;;;;;;1.87;100.00;100419.25;10106882;28;20141;-68
2021/12/09 16:29:19;;;;;;;115.15;42.05;;;;;;;1.79;100.00;100413.59;10106820;28;20409;-68
2021/12/09 16:34:15;;;;;;;118.95;45.40;;;;;;;1.76;100.00;100420.28;10105611;28;20130;-67
2021/12/09 16:39:14;;;;;;;116.15;44.92;;;;;;;1.80;100.00;100416.00;10104199;28;20046;-68
2021/12/09 16:44:10;;;;;;;115.22;43.00;;;;;;;1.81;100.00;100417.63;10103002;28;20101;-68
2021/12/09 16:49:07;;;;;;;113.07;42.40;;;;;;;1.82;100.00;100413.84;10105704;28;20531;-68
2021/12/09 16:54:04;;;;;;;111.63;42.90;;;;;;;1.81;100.00;100417.63;10100444;28;20134;-68
2021/12/09 16:59:11;;;;;;;116.60;41.40;;;;;;;1.79;100.00;100408.19;10105625;28;20464;-68
2021/12/09 17:04:09;;;;;;;110.43;41.97;;;;;;;1.82;100.00;100413.84;10108644;28;20075;-68
2021/12/09 17:09:06;;;;;;;108.60;41.67;;;;;;;1.75;100.00;100413.28;10116881;28;20038;-68
2021/12/09 17:14:04;;;;;;;110.18;40.83;;;;;;;1.84;100.00;100411.69;10099385;28;20137;-68
2021/12/09 17:19:01;;;;;;;102.32;43.35;;;;;;;1.83;100.00;100383.13;10100641;28;20248;-68
2021/12/09 17:23:58;;;;;;;109.97;39.75;;;;;;;1.97;100.00;100388.78;10102972;28;20500;-68
2021/12/09 17:28:55;;;;;;;102.18;40.80;;;;;;;1.99;100.00;100396.63;10102688;28;20468;-68
2021/12/09 17:33:51;;;;;;;111.15;42.10;;;;;;;2.05;100.00;100390.16;10107722;28;20102;-68
2021/12/09 17:38:48;;;;;;;104.45;42.00;;;;;;;2.11;100.00;100389.06;10101002;28;20035;-68
2021/12/09 17:43:44;;;;;;;105.30;42.13;;;;;;;2.10;100.00;100393.66;10105338;28;20572;-68
2021/12/09 17:48:41;;;;;;;109.10;41.70;;;;;;;2.08;100.00;100384.22;10102364;28;20042;-68
2021/12/09 17:53:37;;;;;;;101.97;43.63;;;;;;;2.01;100.00;100383.66;10108282;28;20054;-68
2021/12/09 17:58:35;;;;;;;112.20;42.50;;;;;;;2.13;100.00;100386.91;10104631;28;20047;-68
2021/12/09 18:03:31;;;;;;;105.95;41.53;;;;;;;2.06;100.00;100383.66;10103213;28;20050;-68
2021/12/09 18:08:28;;;;;;;103.95;41.33;;;;;;;2.03;100.00;100397.69;10120673;28;20047;-69
2021/12/09 18:13:25;;;;;;;112.07;41.72;;;;;;;2.02;100.00;100385.28;10113165;28;20577;-69
2021/12/09 18:18:23;;;;;;;104.70;43.35;;;;;;;1.95;100.00;100390.13;10116530;28;20050;-68
2021/12/09 18:23:20;;;;;;;113.82;43.60;;;;;;;2.01;100.00;100389.06;10120768;28;20150;-68
2021/12/09 18:28:20;;;;;;;98.05;41.15;;;;;;;1.94;100.00;100383.13;10108081;28;20125;-72
2021/12/09 18:33:18;;;;;;;107.78;40.85;;;;;;;2.16;100.00;100386.38;10106534;28;20070;-72
2021/12/09 18:38:16;;;;;;;106.53;41.40;;;;;;;2.21;100.00;100367.50;10115810;28;20070;-72
2021/12/09 18:43:14;;;;;;;103.57;41.40;;;;;;;2.12;100.00;100363.72;10115628;28;20073;-72
2021/12/09 18:48:14;;;;;;;102.07;40.58;;;;;;;2.15;100.00;100347.00;10126471;28;20054;-72
2021/12/09 18:53:12;;;;;;;110.60;43.83;;;;;;;2.22;100.00;100354.81;10125300;28;20486;-72
2021/12/09 18:58:11;;;;;;;94.55;40.75;;;;;;;2.08;100.00;100347.25;10134029;28;20054;-72
2021/12/09 19:03:09;;;;;;;104.18;42.10;;;;;;;2.16;100.00;100347.78;10107226;28;20047;-72
2021/12/09 19:08:06;;;;;;;107.03;39.58;;;;;;;2.19;100.00;100326.50;10122459;28;20113;-73
2021/12/09 19:13:04;;;;;;;98.97;40.60;;;;;;;2.20;100.00;100327.31;10119189;28;20121;-73
2021/12/09 19:18:04;;;;;;;104.55;40.17;;;;;;;2.23;100.00;100327.56;10127295;28;20046;-73
2021/12/09 19:23:02;;;;;;;104.72;40.13;;;;;;;2.21;100.00;100329.72;10094044;28;20090;-72
2021/12/09 19:28:01;;;;;;;105.22;40.58;;;;;;;2.28;100.00;100324.88;10117105;28;20073;-72
2021/12/09 19:32:58;;;;;;;95.72;40.03;;;;;;;2.31;100.00;100327.00;10116175;28;20133;-72
2021/12/09 19:37:55;;;;;;;107.18;42.25;;;;;;;2.27;100.00;100328.63;10099734;28;20089;-73
2021/12/09 19:42:52;;;;;;;98.10;39.45;;;;;;;2.28;100.00;100330.25;10108744;28;20047;-71
2021/12/09 19:47:51;;;;;;;99.97;41.00;;;;;;;2.24;100.00;100326.47;10091958;28;20082;-71
2021/12/09 19:52:50;;;;;;;95.22;40.97;;;;;;;2.27;100.00;100328.63;10117296;28;20066;-71
2021/12/09 19:57:49;;;;;;;103.55;39.90;;;;;;;2.38;100.00;100323.25;10118412;28;20093;-72
2021/12/09 20:02:45;;;;;;;96.57;38.30;;;;;;;2.28;100.00;100324.88;10098489;28;20146;-71
2021/12/09 20:07:42;;;;;;;90.55;35.92;;;;;;;2.29;100.00;100325.66;10101236;28;20043;-71
2021/12/09 20:12:39;;;;;;;105.07;41.35;;;;;;;2.45;100.00;100312.97;10118636;28;20097;-70
2021/12/09 20:17:35;;;;;;;94.18;37.83;;;;;;;2.37;100.00;100300.84;10110436;28;20497;-69
2021/12/09 20:22:32;;;;;;;99.20;39.92;;;;;;;2.41;100.00;100296.50;10111496;28;20061;-71
2021/12/09 20:27:29;;;;;;;89.57;39.33;;;;;;;2.42;100.00;100302.72;10097905;28;20046;-72
2021/12/09 20:32:44;;;;;;;94.65;38.00;;;;;;;2.37;100.00;100297.31;10093945;28;20583;-74
2021/12/09 20:37:40;;;;;;;105.30;43.03;;;;;;;2.35;100.00;100296.81;10086572;28;20066;-73
2021/12/09 20:42:37;;;;;;;92.65;38.53;;;;;;;2.36;100.00;100287.63;10113946;28;20517;-73
2021/12/09 20:47:37;;;;;;;97.72;38.42;;;;;;;2.28;100.00;100281.69;10112896;28;20054;-73
2021/12/09 20:52:34;;;;;;;86.53;38.00;;;;;;;2.36;100.00;100282.22;10111283;28;20049;-73
2021/12/09 20:57:31;;;;;;;93.07;39.08;;;;;;;2.31;100.00;100275.75;10120277;28;20106;-73
2021/12/09 21:02:27;;;;;;;96.55;38.63;;;;;;;2.35;100.00;100283.31;10109595;28;20493;-73
2021/12/09 21:07:25;;;;;;;90.18;37.28;;;;;;;2.43;100.00;100271.94;10102187;28;20054;-73
2021/12/09 21:12:23;;;;;;;90.18;37.88;;;;;;;2.44;100.00;100268.19;10102867;28;20085;-74
2021/12/09 21:17:20;;;;;;;98.97;41.10;;;;;;;2.46;100.00;100271.38;10102815;28;20050;-70
2021/12/09 21:22:16;;;;;;;94.43;38.92;;;;;;;2.44;100.00;100273.59;10091901;28;20489;-70
2021/12/09 21:27:13;;;;;;;95.95;41.78;;;;;;;2.43;100.00;100263.84;10079381;28;20055;-70
2021/12/09 21:32:12;;;;;;;100.50;41.38;;;;;;;2.42;100.00;100270.34;10082525;28;20138;-71
2021/12/09 21:37:12;;;;;;;103.68;39.92;;;;;;;2.36;100.00;100260.63;10097183;28;20101;-72
2021/12/09 21:42:09;;;;;;;96.30;39.58;;;;;;;2.29;100.00;100256.31;10108502;28;20090;-72
2021/12/09 21:47:06;;;;;;;95.88;38.97;;;;;;;2.36;100.00;100244.44;10091143;28;20167;-72
2021/12/09 21:52:03;;;;;;;97.22;42.45;;;;;;;2.33;100.00;100240.41;10103509;28;20146;-72
2021/12/09 21:56:59;;;;;;;97.47;38.72;;;;;;;2.31;100.00;100237.97;10104087;28;20042;-71
2021/12/09 22:01:55;;;;;;;99.85;39.95;;;;;;;2.38;100.00;100242.28;10105030;28;20468;-72
2021/12/09 22:06:53;;;;;;;95.18;39.83;;;;;;;2.41;100.00;100230.94;10120182;28;20097;-72
2021/12/09 22:11:49;;;;;;;102.18;39.88;;;;;;;2.35;100.00;100229.34;10106907;28;20047;-72
2021/12/09 22:16:47;;;;;;;85.95;37.10;;;;;;;2.41;100.00;100230.94;10106894;28;20117;-72
2021/12/09 22:21:46;;;;;;;94.55;38.05;;;;;;;2.38;100.00;100226.91;10107762;28;20124;-71
2021/12/09 22:26:45;;;;;;;86.32;36.28;;;;;;;2.42;100.00;100217.19;10109958;28;20085;-72
2021/12/09 22:31:42;;;;;;;94.05;38.75;;;;;;;2.44;100.00;100214.22;10097262;28;20078;-71
2021/12/09 22:36:39;;;;;;;97.65;42.15;;;;;;;2.31;100.00;100199.41;10106650;28;20137;-71
2021/12/09 22:41:36;;;;;;;90.00;38.65;;;;;;;2.38;100.00;100182.94;10101745;28;20203;-71
2021/12/09 22:46:34;;;;;;;90.90;38.60;;;;;;;2.35;100.00;100186.19;10112448;28;20078;-71
2021/12/09 22:51:34;;;;;;;92.63;39.58;;;;;;;2.36;100.00;100179.69;10108155;28;20449;-72
2021/12/09 22:56:31;;;;;;;88.72;39.03;;;;;;;2.32;100.00;100174.03;10102365;28;20117;-71
2021/12/09 23:01:29;;;;;;;90.47;37.30;;;;;;;2.28;100.00;100168.41;10108646;28;20051;-71
2021/12/09 23:06:28;;;;;;;92.95;37.95;;;;;;;2.28;100.00;100163.00;10105441;28;20083;-70
2021/12/09 23:11:27;;;;;;;88.90;35.55;;;;;;;2.12;100.00;100147.16;10111557;28;20086;-70
2021/12/09 23:16:29;;;;;;;98.80;39.17;;;;;;;2.34;100.00;100144.91;10122979;28;20051;-70